createdAt,value
2018-08-04T00:02:15.865Z,17.77
2018-08-04T00:04:44.000Z,18.03
2018-08-04T00:07:12.126Z,16.77
2018-08-04T00:09:40.269Z,16.67
2018-08-04T00:12:08.411Z,17.17
2018-08-04T00:14:36.528Z,17.43
2018-08-04T00:17:04.912Z,20.50
2018-08-04T00:19:33.041Z,17.00
2018-08-04T00:22:01.176Z,18.13
2018-08-04T00:24:29.307Z,18.00
2018-08-04T00:26:57.422Z,15.97
2018-08-04T00:29:25.644Z,16.60
2018-08-04T00:31:53.762Z,15.50
2018-08-04T00:34:21.928Z,16.70
2018-08-04T00:36:50.051Z,16.93
2018-08-04T00:39:18.172Z,15.23
2018-08-04T00:41:46.335Z,17.40
2018-08-04T00:44:14.469Z,17.30
2018-08-04T00:46:42.594Z,18.20
2018-08-04T00:49:10.702Z,19.50
2018-08-04T00:51:38.811Z,17.43
2018-08-04T00:54:06.928Z,15.80
2018-08-04T00:56:35.055Z,17.70
2018-08-04T00:59:03.197Z,18.07
2018-08-04T01:01:31.329Z,17.80
2018-08-04T01:03:59.499Z,18.60
2018-08-04T01:06:27.635Z,16.30
2018-08-04T01:08:55.756Z,17.30
2018-08-04T01:11:23.912Z,17.53
2018-08-04T01:13:52.318Z,17.27
2018-08-04T01:16:20.550Z,15.83
2018-08-04T01:18:48.658Z,17.47
2018-08-04T01:21:16.769Z,17.53
2018-08-04T01:23:44.902Z,16.87
2018-08-04T01:26:13.035Z,17.60
2018-08-04T01:28:41.867Z,18.60
2018-08-04T01:31:10.031Z,16.77
2018-08-04T01:33:38.160Z,18.10
2018-08-04T01:36:06.282Z,18.07
2018-08-04T01:38:34.404Z,18.83
2018-08-04T01:41:02.531Z,19.13
2018-08-04T01:43:30.640Z,19.97
2018-08-04T01:45:58.784Z,18.87
2018-08-04T01:48:26.919Z,17.70
2018-08-04T01:50:55.333Z,18.90
2018-08-04T01:53:23.459Z,16.17
2018-08-04T01:55:51.615Z,16.20
2018-08-04T01:58:19.741Z,18.70
2018-08-04T02:00:47.889Z,17.57
2018-08-04T02:03:15.998Z,16.77
2018-08-04T02:05:44.131Z,17.23
2018-08-04T02:08:12.299Z,16.80
2018-08-04T02:10:40.472Z,17.63
2018-08-04T02:13:08.784Z,20.20
2018-08-04T02:15:36.904Z,18.37
2018-08-04T02:18:05.127Z,17.27
2018-08-04T02:20:33.518Z,17.27
2018-08-04T02:23:01.759Z,16.80
2018-08-04T02:25:29.878Z,19.10
2018-08-04T02:27:58.001Z,16.20
2018-08-04T02:30:26.127Z,16.07
2018-08-04T02:32:54.019Z,16.03
2018-08-04T02:35:22.260Z,16.20
2018-08-04T02:37:50.408Z,15.20
2018-08-04T02:40:18.569Z,14.80
2018-08-04T02:42:46.674Z,14.80
2018-08-04T02:45:14.808Z,16.40
2018-08-04T02:47:42.939Z,18.93
2018-08-04T02:50:10.850Z,14.47
2018-08-04T02:52:39.005Z,16.07
2018-08-04T02:55:07.117Z,15.80
2018-08-04T02:57:35.242Z,17.23
2018-08-04T03:00:03.387Z,15.37
2018-08-04T03:02:31.505Z,14.93
2018-08-04T03:04:59.618Z,16.30
2018-08-04T03:07:27.760Z,15.37
2018-08-04T03:09:55.878Z,16.00
2018-08-04T03:12:24.017Z,15.67
2018-08-04T03:14:52.138Z,15.57
2018-08-04T03:17:20.273Z,14.03
2018-08-04T03:19:48.397Z,14.50
2018-08-04T03:22:16.523Z,17.70
2018-08-04T03:24:44.751Z,16.60
2018-08-04T03:27:12.959Z,17.37
2018-08-04T03:29:41.131Z,15.73
2018-08-04T03:32:09.287Z,15.67
2018-08-04T03:34:37.631Z,15.57
2018-08-04T03:37:05.782Z,18.03
2018-08-04T03:39:33.895Z,17.67
2018-08-04T03:42:02.029Z,16.47
2018-08-04T03:44:30.187Z,18.40
2018-08-04T03:49:51.422Z,16.83
2018-08-04T03:52:19.580Z,17.20
2018-08-04T03:54:47.707Z,16.43
2018-08-04T03:57:15.850Z,15.30
2018-08-04T03:59:44.224Z,15.97
2018-08-04T04:02:12.400Z,16.27
2018-08-04T04:04:40.567Z,17.57
2018-08-04T04:07:08.757Z,16.83
2018-08-04T04:09:36.883Z,18.43
2018-08-04T04:12:05.067Z,17.50
2018-08-04T04:14:33.175Z,16.20
2018-08-04T04:17:01.304Z,17.27
2018-08-04T04:19:29.449Z,18.70
2018-08-04T04:21:57.599Z,16.67
2018-08-04T04:24:25.726Z,16.00
2018-08-04T04:26:53.993Z,15.70
2018-08-04T04:29:22.172Z,16.20
2018-08-04T04:31:50.313Z,16.17
2018-08-04T04:34:18.462Z,16.63
2018-08-04T04:36:46.599Z,15.47
2018-08-04T04:39:14.723Z,16.70
2018-08-04T04:41:42.839Z,15.67
2018-08-04T04:44:10.963Z,16.47
2018-08-04T04:46:40.320Z,15.67
2018-08-04T04:49:10.858Z,13.40
2018-08-04T04:51:39.435Z,13.97
2018-08-04T04:54:07.575Z,14.13
2018-08-04T04:56:35.691Z,12.60
2018-08-04T04:59:03.939Z,11.70
2018-08-04T05:01:32.077Z,11.57
2018-08-04T05:04:00.263Z,10.17
2018-08-04T05:06:28.704Z,10.63
2018-08-04T05:08:56.889Z,9.40
2018-08-04T05:11:25.004Z,14.37
2018-08-04T05:13:53.210Z,14.13
2018-08-04T05:16:21.329Z,10.13
2018-08-04T05:18:49.478Z,10.87
2018-08-04T05:21:17.571Z,8.60
2018-08-04T05:23:45.694Z,8.60
2018-08-04T05:26:13.810Z,7.40
2018-08-04T05:28:41.928Z,7.33
2018-08-04T05:31:10.039Z,7.37
2018-08-04T05:33:38.166Z,10.10
2018-08-04T05:36:06.276Z,7.80
2018-08-04T05:38:34.408Z,6.97
2018-08-04T05:41:02.516Z,6.93
2018-08-04T05:43:30.744Z,7.70
2018-08-04T05:45:58.774Z,7.50
2018-08-04T05:48:26.884Z,8.27
2018-08-04T05:50:54.988Z,6.73
2018-08-04T05:53:23.161Z,7.93
2018-08-04T05:55:51.279Z,8.20
2018-08-04T05:58:19.447Z,7.03
2018-08-04T06:00:47.574Z,7.30
2018-08-04T06:03:15.748Z,6.27
2018-08-04T06:05:43.805Z,7.33
2018-08-04T06:08:11.917Z,6.60
2018-08-04T06:10:40.114Z,6.70
2018-08-04T06:13:08.287Z,7.57
2018-08-04T06:15:36.403Z,7.60
2018-08-04T06:18:04.522Z,7.43
2018-08-04T06:20:36.095Z,7.10
2018-08-04T06:23:04.198Z,9.03
2018-08-04T06:25:32.350Z,8.23
2018-08-04T06:28:00.466Z,7.07
2018-08-04T06:30:28.656Z,11.30
2018-08-04T06:32:56.761Z,6.77
2018-08-04T06:35:24.865Z,7.53
2018-08-04T06:37:52.851Z,9.10
2018-08-04T06:40:20.959Z,8.40
2018-08-04T06:42:49.101Z,6.00
2018-08-04T06:45:17.223Z,5.93
2018-08-04T06:47:45.335Z,5.80
2018-08-04T06:50:13.461Z,5.70
2018-08-04T06:52:41.613Z,7.00
2018-08-04T06:55:09.694Z,5.57
2018-08-04T06:57:37.820Z,9.40
2018-08-04T07:00:06.383Z,5.73
2018-08-04T07:02:34.516Z,6.53
2018-08-04T07:05:02.638Z,5.30
2018-08-04T07:07:30.772Z,6.80
2018-08-04T07:09:58.892Z,6.70
2018-08-04T07:12:27.008Z,5.27
2018-08-04T07:14:55.131Z,6.13
2018-08-04T07:17:23.227Z,6.13
2018-08-04T07:19:51.428Z,5.50
2018-08-04T07:22:19.535Z,5.57
2018-08-04T07:24:49.379Z,8.30
2018-08-04T07:27:17.544Z,7.80
2018-08-04T07:29:46.941Z,5.40
2018-08-04T07:32:15.053Z,8.40
2018-08-04T07:34:44.798Z,5.73
2018-08-04T07:37:12.891Z,9.37
2018-08-04T07:39:41.006Z,8.33
2018-08-04T07:42:09.157Z,6.30
2018-08-04T07:44:37.275Z,6.07
2018-08-04T07:47:05.378Z,8.10
2018-08-04T07:49:33.506Z,7.23
2018-08-04T07:52:01.612Z,7.60
2018-08-04T07:54:29.810Z,6.20
2018-08-04T07:56:57.920Z,6.70
2018-08-04T07:59:26.098Z,6.00
2018-08-04T08:01:54.239Z,6.10
2018-08-04T08:04:22.370Z,11.83
2018-08-04T08:06:50.477Z,6.10
2018-08-04T08:09:18.613Z,5.33
2018-08-04T08:11:46.732Z,4.87
2018-08-04T08:14:14.849Z,5.20
2018-08-04T08:16:42.942Z,5.03
2018-08-04T08:19:11.056Z,6.53
2018-08-04T08:21:39.147Z,4.77
2018-08-04T08:24:07.264Z,7.33
2018-08-04T08:26:35.371Z,5.50
2018-08-04T08:29:03.470Z,19.70
2018-08-04T08:31:31.585Z,9.00
2018-08-04T08:33:59.693Z,7.17
2018-08-04T08:36:27.803Z,5.23
2018-08-04T08:38:55.890Z,6.17
2018-08-04T08:41:24.023Z,5.80
2018-08-04T08:43:52.180Z,6.10
2018-08-04T08:46:20.284Z,4.53
2018-08-04T08:48:48.394Z,6.27
2018-08-04T08:51:16.539Z,6.07
2018-08-04T08:53:44.736Z,5.50
2018-08-04T08:56:12.779Z,5.77
2018-08-04T08:58:40.899Z,9.80
2018-08-04T09:01:09.003Z,5.70
2018-08-04T09:03:37.098Z,6.70
2018-08-04T09:06:05.198Z,6.80
2018-08-04T09:08:33.322Z,8.47
2018-08-04T09:11:01.411Z,8.80
2018-08-04T09:13:29.559Z,7.77
2018-08-04T09:15:57.655Z,7.10
2018-08-04T09:18:25.856Z,6.60
2018-08-04T09:20:53.959Z,9.30
2018-08-04T09:23:22.059Z,6.67
2018-08-04T09:25:50.180Z,8.13
2018-08-04T09:28:18.269Z,9.97
2018-08-04T09:30:46.408Z,6.97
2018-08-04T09:33:14.523Z,6.63
2018-08-04T09:35:42.645Z,6.47
2018-08-04T09:38:10.757Z,7.20
2018-08-04T09:40:38.877Z,10.03
2018-08-04T09:43:07.003Z,9.47
2018-08-04T09:45:35.162Z,6.83
2018-08-04T09:48:03.274Z,10.57
2018-08-04T09:50:31.399Z,7.73
2018-08-04T09:52:59.487Z,7.33
2018-08-04T09:55:27.579Z,6.80
2018-08-04T09:57:55.695Z,7.13
2018-08-04T10:00:32.100Z,6.30
2018-08-04T10:03:00.587Z,6.20
2018-08-04T10:05:28.704Z,7.37
2018-08-04T10:07:56.785Z,5.90
2018-08-04T10:10:24.943Z,7.07
2018-08-04T10:12:53.087Z,6.80
2018-08-04T10:15:21.174Z,7.13
2018-08-04T10:17:49.288Z,9.83
2018-08-04T10:20:17.438Z,10.00
2018-08-04T10:22:45.503Z,10.07
2018-08-04T10:25:13.629Z,8.60
2018-08-04T10:27:41.796Z,6.07
2018-08-04T10:30:10.936Z,9.03
2018-08-04T10:32:39.171Z,6.67
2018-08-04T10:35:07.464Z,6.70
2018-08-04T10:37:37.175Z,7.60
2018-08-04T10:40:05.308Z,6.77
2018-08-04T10:42:33.399Z,5.70
2018-08-04T10:45:01.511Z,6.27
2018-08-04T10:47:29.612Z,8.17
2018-08-04T10:49:57.716Z,6.87
2018-08-04T10:52:25.838Z,6.83
2018-08-04T10:54:54.355Z,6.50
2018-08-04T10:57:22.478Z,6.80
2018-08-04T10:59:50.606Z,6.23
2018-08-04T11:02:18.713Z,8.83
2018-08-04T11:04:46.815Z,6.37
2018-08-04T11:07:14.918Z,6.50
2018-08-04T11:09:43.045Z,6.73
2018-08-04T11:12:11.143Z,6.77
2018-08-04T11:14:39.263Z,6.70
2018-08-04T11:17:07.419Z,6.27
2018-08-04T11:19:35.512Z,12.03
2018-08-04T11:22:03.612Z,6.50
2018-08-04T11:24:31.706Z,12.63
2018-08-04T11:26:59.829Z,6.87
2018-08-04T11:29:27.926Z,7.97
2018-08-04T11:31:56.017Z,7.23
2018-08-04T11:34:24.118Z,7.07
2018-08-04T11:36:52.268Z,6.73
2018-08-04T11:39:20.396Z,7.80
2018-08-04T11:41:48.480Z,7.20
2018-08-04T11:44:16.585Z,7.40
2018-08-04T11:46:44.683Z,7.30
2018-08-04T11:49:12.784Z,9.43
2018-08-04T11:51:40.975Z,8.37
2018-08-04T11:54:09.000Z,9.30
2018-08-04T11:56:37.119Z,9.47
2018-08-04T11:59:05.279Z,8.53
2018-08-04T12:01:33.395Z,7.43
2018-08-04T12:04:01.503Z,8.13
2018-08-04T12:06:29.598Z,7.80
2018-08-04T12:08:57.719Z,8.47
2018-08-04T12:11:25.819Z,7.23
2018-08-04T12:13:53.932Z,9.40
2018-08-04T12:16:22.073Z,6.87
2018-08-04T12:18:50.189Z,8.73
2018-08-04T12:21:18.290Z,9.93
2018-08-04T12:23:46.397Z,7.67
2018-08-04T12:26:14.497Z,7.73
2018-08-04T12:28:42.606Z,7.90
2018-08-04T12:31:10.699Z,7.90
2018-08-04T12:33:38.802Z,7.53
2018-08-04T12:36:06.901Z,11.30
2018-08-04T12:38:35.013Z,10.43
2018-08-04T12:41:03.107Z,8.03
2018-08-04T12:43:31.259Z,7.03
2018-08-04T12:45:59.367Z,7.97
2018-08-04T12:48:29.210Z,7.73
2018-08-04T12:50:58.516Z,7.60
2018-08-04T12:53:26.630Z,6.70
2018-08-04T12:55:54.712Z,5.83
2018-08-04T12:58:22.839Z,6.33
2018-08-04T13:00:51.336Z,5.90
2018-08-04T13:03:19.637Z,6.40
2018-08-04T13:05:47.727Z,6.67
2018-08-04T13:08:15.814Z,5.97
2018-08-04T13:10:43.969Z,5.60
2018-08-04T13:13:12.079Z,5.77
2018-08-04T13:15:40.202Z,6.40
2018-08-04T13:18:08.297Z,5.67
2018-08-04T13:20:36.395Z,7.53
2018-08-04T13:23:04.505Z,5.40
2018-08-04T13:25:32.606Z,5.20
2018-08-04T13:28:00.721Z,5.13
2018-08-04T13:30:28.910Z,13.83
2018-08-04T13:32:56.920Z,5.23
2018-08-04T13:35:25.360Z,4.70
2018-08-04T13:37:53.501Z,5.67
2018-08-04T13:40:21.610Z,5.93
2018-08-04T13:42:49.741Z,7.30
2018-08-04T13:45:17.797Z,6.00
2018-08-04T13:47:45.895Z,5.13
2018-08-04T13:50:14.110Z,6.27
2018-08-04T13:52:42.159Z,5.33
2018-08-04T13:55:10.287Z,5.90
2018-08-04T13:57:38.379Z,5.87
2018-08-04T14:00:06.834Z,8.40
2018-08-04T14:02:35.149Z,5.63
2018-08-04T14:05:03.358Z,5.73
2018-08-04T14:07:31.460Z,5.10
2018-08-04T14:09:59.558Z,6.40
2018-08-04T14:12:27.702Z,4.93
2018-08-04T14:14:55.780Z,5.00
2018-08-04T14:17:23.911Z,4.97
2018-08-04T14:19:52.015Z,5.77
2018-08-04T14:22:20.110Z,5.70
2018-08-04T14:24:48.212Z,5.73
2018-08-04T14:27:16.321Z,5.03
2018-08-04T14:29:44.415Z,6.40
2018-08-04T14:32:12.527Z,9.43
2018-08-04T14:34:40.634Z,5.10
2018-08-04T14:37:08.726Z,4.80
2018-08-04T14:39:36.822Z,6.03
2018-08-04T14:42:05.040Z,5.27
2018-08-04T14:44:33.147Z,6.13
2018-08-04T14:47:01.265Z,6.43
2018-08-04T14:49:29.442Z,6.20
2018-08-04T14:51:57.601Z,5.03
2018-08-04T14:54:25.706Z,5.17
2018-08-04T14:56:53.806Z,5.30
2018-08-04T14:59:21.914Z,4.80
2018-08-04T15:01:50.023Z,5.10
2018-08-04T15:04:18.213Z,4.50
2018-08-04T15:06:46.303Z,4.50
2018-08-04T15:09:14.405Z,5.07
2018-08-04T15:11:42.492Z,4.60
2018-08-04T15:14:11.119Z,8.40
2018-08-04T15:16:39.254Z,8.00
2018-08-04T15:19:07.347Z,7.53
2018-08-04T15:21:35.481Z,6.27
2018-08-04T15:24:03.538Z,4.27
2018-08-04T15:26:31.894Z,5.80
2018-08-04T15:29:00.259Z,6.80
2018-08-04T15:31:28.352Z,4.40
2018-08-04T15:33:56.578Z,4.53
2018-08-04T15:36:24.666Z,3.77
2018-08-04T15:38:52.854Z,5.53
2018-08-04T15:41:20.950Z,3.60
2018-08-04T15:43:49.043Z,2.90
2018-08-04T15:46:17.148Z,2.67
2018-08-04T15:48:45.284Z,2.80
2018-08-04T15:51:13.373Z,3.60
2018-08-04T15:53:41.482Z,2.30
2018-08-04T15:56:09.587Z,3.63
2018-08-04T15:58:37.696Z,1.80
2018-08-04T16:01:05.808Z,2.30
2018-08-04T16:03:34.097Z,2.20
2018-08-04T16:06:02.191Z,2.90
2018-08-04T16:08:30.558Z,2.07
2018-08-04T16:10:58.657Z,3.60
2018-08-04T16:13:26.832Z,2.27
2018-08-04T16:15:54.962Z,1.50
2018-08-04T16:18:23.068Z,2.10
2018-08-04T16:20:51.192Z,1.70
2018-08-04T16:23:19.308Z,3.10
2018-08-04T16:25:47.416Z,2.50
2018-08-04T16:28:15.509Z,2.50
2018-08-04T16:30:43.595Z,2.70
2018-08-04T16:33:11.689Z,2.20
2018-08-04T16:35:40.610Z,1.70
2018-08-04T16:38:08.703Z,1.87
2018-08-04T16:40:36.795Z,2.20
2018-08-04T16:43:04.883Z,2.23
2018-08-04T16:45:32.987Z,8.00
2018-08-04T16:48:01.112Z,4.03
2018-08-04T16:50:30.834Z,2.60
2018-08-04T16:52:58.952Z,2.73
2018-08-04T16:55:27.069Z,3.00
2018-08-04T16:57:55.259Z,6.77
2018-08-04T17:00:23.403Z,2.67
2018-08-04T17:02:51.522Z,10.20
2018-08-04T17:05:19.638Z,5.70
2018-08-04T17:07:47.767Z,2.83
2018-08-04T17:10:15.856Z,3.83
2018-08-04T17:12:43.962Z,2.20
2018-08-04T17:15:12.062Z,2.27
2018-08-04T17:17:40.179Z,3.97
2018-08-04T17:20:08.272Z,2.90
2018-08-04T17:22:36.407Z,2.13
2018-08-04T17:25:04.527Z,2.67
2018-08-04T17:27:32.704Z,2.07
2018-08-04T17:30:00.823Z,2.10
2018-08-04T17:32:28.946Z,1.80
2018-08-04T17:34:57.066Z,2.03
2018-08-04T17:37:25.211Z,2.50
2018-08-04T17:39:54.395Z,2.47
2018-08-04T17:42:22.515Z,2.40
2018-08-04T17:44:50.612Z,2.40
2018-08-04T17:47:18.714Z,1.93
2018-08-04T17:49:46.898Z,1.97
2018-08-04T17:52:14.999Z,2.33
2018-08-04T17:54:43.098Z,2.73
2018-08-04T17:57:11.298Z,4.80
2018-08-04T17:59:39.346Z,3.33
2018-08-04T18:02:08.007Z,3.57
2018-08-04T18:04:36.257Z,2.60
2018-08-04T18:07:04.479Z,2.30
2018-08-04T18:09:32.577Z,2.10
2018-08-04T18:12:00.668Z,2.60
2018-08-04T18:14:28.776Z,2.60
2018-08-04T18:16:56.872Z,2.83
2018-08-04T18:19:24.951Z,5.03
2018-08-04T18:21:53.058Z,3.40
2018-08-04T18:24:21.165Z,2.70
2018-08-04T18:26:49.322Z,2.30
2018-08-04T18:29:17.439Z,2.20
2018-08-04T18:31:45.537Z,6.63
2018-08-04T18:34:13.652Z,4.10
2018-08-04T18:36:41.726Z,1.87
2018-08-04T18:39:10.340Z,1.73
2018-08-04T18:41:38.432Z,1.90
2018-08-04T18:44:06.526Z,3.37
2018-08-04T18:46:34.627Z,2.70
2018-08-04T18:49:02.743Z,3.30
2018-08-04T18:51:30.839Z,2.63
2018-08-04T18:53:58.934Z,2.07
2018-08-04T18:56:27.047Z,2.20
2018-08-04T18:58:55.170Z,4.40
2018-08-04T19:01:23.260Z,2.10
2018-08-04T19:03:51.365Z,2.30
2018-08-04T19:06:19.455Z,2.17
2018-08-04T19:08:47.350Z,4.00
2018-08-04T19:11:15.455Z,2.00
2018-08-04T19:13:43.577Z,1.80
2018-08-04T19:16:16.484Z,2.43
2018-08-04T19:18:45.016Z,2.23
2018-08-04T19:21:13.213Z,2.63
2018-08-04T19:23:41.333Z,3.40
2018-08-04T19:26:09.441Z,2.53
2018-08-04T19:28:37.664Z,2.30
2018-08-04T19:31:06.009Z,1.90
2018-08-04T19:33:34.209Z,2.23
2018-08-04T19:36:02.306Z,1.53
2018-08-04T19:38:30.422Z,1.97
2018-08-04T19:40:58.510Z,1.60
2018-08-04T19:43:26.691Z,2.70
2018-08-04T19:45:54.799Z,2.37
2018-08-04T19:48:22.914Z,1.80
2018-08-04T19:50:51.463Z,2.33
2018-08-04T19:53:19.578Z,2.50
2018-08-04T19:55:47.732Z,2.33
2018-08-04T19:58:15.851Z,2.10
2018-08-04T20:00:43.962Z,3.13
2018-08-04T20:03:12.070Z,5.20
2018-08-04T20:05:40.195Z,1.83
2018-08-04T20:08:08.301Z,1.90
2018-08-04T20:10:36.610Z,4.37
2018-08-04T20:13:04.831Z,3.03
2018-08-04T20:15:32.988Z,2.20
2018-08-04T20:18:01.367Z,1.97
2018-08-04T20:20:30.052Z,4.40
2018-08-04T20:22:58.159Z,2.40
2018-08-04T20:25:26.279Z,2.87
2018-08-04T20:27:55.434Z,2.40
2018-08-04T20:30:23.552Z,3.57
2018-08-04T20:32:52.544Z,2.60
2018-08-04T20:35:20.738Z,2.33
2018-08-04T20:37:48.862Z,2.20
2018-08-04T20:40:18.085Z,5.60
2018-08-04T20:42:46.247Z,2.30
2018-08-04T20:45:14.353Z,3.40
2018-08-04T20:47:42.943Z,3.47
2018-08-04T20:50:11.074Z,2.33
2018-08-04T20:52:39.187Z,6.63
2018-08-04T20:55:07.361Z,5.67
2018-08-04T20:57:35.511Z,3.20
2018-08-04T21:00:04.291Z,2.60
2018-08-04T21:02:32.448Z,3.50
2018-08-04T21:05:00.575Z,3.60
2018-08-04T21:07:28.707Z,2.43
2018-08-04T21:09:56.871Z,2.53
2018-08-04T21:12:25.055Z,3.20
2018-08-04T21:14:53.240Z,3.90
2018-08-04T21:17:21.372Z,3.93
2018-08-04T21:19:49.530Z,3.20
2018-08-04T21:22:17.750Z,3.60
2018-08-04T21:24:45.974Z,8.63
2018-08-04T21:27:14.808Z,4.20
2018-08-04T21:29:43.002Z,3.20
2018-08-04T21:32:11.167Z,3.07
2018-08-04T21:34:39.310Z,3.00
2018-08-04T21:37:07.488Z,3.70
2018-08-04T21:39:35.724Z,4.37
2018-08-04T21:42:04.027Z,2.77
2018-08-04T21:44:32.475Z,3.10
2018-08-04T21:47:00.505Z,2.73
2018-08-04T21:49:28.662Z,5.57
2018-08-04T21:51:56.771Z,2.70
2018-08-04T21:54:24.871Z,5.90
2018-08-04T21:56:53.004Z,3.13
2018-08-04T21:59:21.112Z,3.77
2018-08-04T22:01:55.636Z,2.73
2018-08-04T22:04:23.904Z,3.00
2018-08-04T22:08:02.188Z,3.63
2018-08-04T22:10:30.349Z,5.93
2018-08-04T22:12:58.510Z,3.07
2018-08-04T22:15:26.676Z,5.40
2018-08-04T22:17:54.985Z,2.30
2018-08-04T22:20:23.884Z,4.67
2018-08-04T22:22:52.254Z,3.43
2018-08-04T22:25:21.754Z,3.47
2018-08-04T22:27:49.999Z,3.73
2018-08-04T22:30:19.560Z,3.33
2018-08-04T22:32:48.171Z,2.70
2018-08-04T22:35:16.333Z,3.07
2018-08-04T22:37:44.544Z,8.67
2018-08-04T22:40:13.770Z,3.00
2018-08-04T22:42:42.879Z,3.77
2018-08-04T22:45:50.983Z,3.47
2018-08-04T22:48:19.577Z,3.00
2018-08-04T22:50:47.773Z,2.87
2018-08-04T22:53:16.422Z,4.37
2018-08-04T22:55:44.571Z,3.00
2018-08-04T22:58:12.682Z,4.43
2018-08-04T23:00:42.067Z,2.77
2018-08-04T23:03:10.547Z,2.17
2018-08-04T23:05:38.811Z,2.70
2018-08-04T23:08:07.338Z,2.83
2018-08-04T23:10:36.238Z,3.00
2018-08-04T23:13:04.529Z,2.80
2018-08-04T23:15:32.682Z,2.33
2018-08-04T23:18:01.658Z,2.03
2018-08-04T23:20:29.872Z,3.77
2018-08-04T23:22:58.745Z,2.70
2018-08-04T23:25:26.694Z,6.40
2018-08-04T23:27:54.846Z,2.23
2018-08-04T23:30:23.010Z,2.37
2018-08-04T23:32:52.171Z,3.80
2018-08-04T23:35:20.857Z,2.63
2018-08-04T23:37:49.339Z,4.13
2018-08-04T23:40:17.491Z,3.77
2018-08-04T23:42:45.703Z,4.03
2018-08-04T23:45:13.919Z,2.53
2018-08-04T23:47:42.152Z,3.17
2018-08-04T23:50:10.301Z,2.37
2018-08-04T23:52:38.519Z,2.60
2018-08-04T23:55:06.814Z,3.47
2018-08-04T23:57:34.962Z,2.80
